Terminal Aerodrome Forecast
Issued by NWS Charleston, WV

Current Version | Previous Version | Graphics & Text | Print | Product List | Glossary On
Versions: 1 2 3 4 5 6 7 8 9 10 11 12 13 14 15 16 17 18 19 20 21 22 23 24 25 26 27 28
666
FTUS41 KRLX 260116 AAA
TAFEKN
TAF AMD
KEKN 260116Z 2601/2624 25004KT P6SM VCTS BKN060CB
      TEMPO 2601/2602 5SM SHRA BR BKN025
     FM260400 00000KT 5SM BR VCTS BKN050CB
     FM260800 00000KT 1SM BR VCTS BKN001CB
     FM260900 00000KT 1/2SM FG OVC001
     FM261100 00000KT 3/4SM BR BKN001
     FM261300 00000KT 3SM BR SCT002 BKN025
     FM261400 00000KT P6SM BKN025
     FM261600 29004KT P6SM BKN035=

USA.gov is the U.S. government's official web portal to all federal, state and local government web resources and services.